createdAt,value
2019-02-21T00:00:02.406Z,78.75
2019-02-21T00:01:03.233Z,79.20
2019-02-21T00:01:40.923Z,75.32
2019-02-21T00:02:19.046Z,71.42
2019-02-21T00:02:54.707Z,84.90
2019-02-21T00:03:30.206Z,77.75
2019-02-21T00:04:05.825Z,77.67
2019-02-21T00:04:41.307Z,88.40
2019-02-21T00:05:16.827Z,70.78
2019-02-21T00:05:52.547Z,71.57
2019-02-21T00:06:28.016Z,78.95
2019-02-21T00:07:03.614Z,75.55
2019-02-21T00:07:39.408Z,78.65
2019-02-21T00:08:15.317Z,77.42
2019-02-21T00:08:50.934Z,76.33
2019-02-21T00:09:26.545Z,76.00
2019-02-21T00:10:01.907Z,75.10
2019-02-21T00:10:37.306Z,78.50
2019-02-21T00:11:12.873Z,72.62
2019-02-21T00:11:48.499Z,78.00
2019-02-21T00:12:24.233Z,74.70
2019-02-21T00:12:59.772Z,78.05
2019-02-21T00:13:35.236Z,76.70
2019-02-21T00:14:10.873Z,80.62
2019-02-21T00:14:46.594Z,82.67
2019-02-21T00:15:22.429Z,77.82
2019-02-21T00:15:58.215Z,77.95
2019-02-21T00:16:33.930Z,79.53
2019-02-21T00:17:09.647Z,83.55
2019-02-21T00:17:45.130Z,78.12
2019-02-21T00:18:20.697Z,87.53
2019-02-21T00:18:56.471Z,80.07
2019-02-21T00:19:31.975Z,81.10
2019-02-21T00:20:07.878Z,80.32
2019-02-21T00:20:43.802Z,86.28
2019-02-21T00:21:19.508Z,81.82
2019-02-21T00:21:55.009Z,76.30
2019-02-21T00:22:30.567Z,79.92
2019-02-21T00:23:06.181Z,78.55
2019-02-21T00:23:41.715Z,78.80
2019-02-21T00:24:17.346Z,85.05
2019-02-21T00:24:53.068Z,75.37
2019-02-21T00:25:28.389Z,83.82
2019-02-21T00:26:03.906Z,84.20
2019-02-21T00:26:39.353Z,86.87
2019-02-21T00:27:14.837Z,81.32
2019-02-21T00:27:50.491Z,86.20
2019-02-21T00:28:26.390Z,90.80
2019-02-21T00:29:02.092Z,77.90
2019-02-21T00:29:37.945Z,79.15
2019-02-21T00:30:13.855Z,80.12
2019-02-21T00:30:49.388Z,79.75
2019-02-21T00:31:25.007Z,73.57
2019-02-21T00:32:00.774Z,74.92
2019-02-21T00:32:36.469Z,80.25
2019-02-21T00:33:12.091Z,71.50
2019-02-21T00:33:47.651Z,71.47
2019-02-21T00:34:23.400Z,75.75
2019-02-21T00:34:59.017Z,78.30
2019-02-21T00:35:34.555Z,74.27
2019-02-21T00:36:10.220Z,78.37
2019-02-21T00:36:46.271Z,93.80
2019-02-21T00:37:21.867Z,84.17
2019-02-21T00:37:57.575Z,73.85
2019-02-21T00:38:33.330Z,71.90
2019-02-21T00:39:08.930Z,70.80
2019-02-21T00:39:44.366Z,75.10
2019-02-21T00:40:20.062Z,76.02
2019-02-21T00:40:55.850Z,72.10
2019-02-21T00:41:31.488Z,83.25
2019-02-21T00:42:07.267Z,69.62
2019-02-21T00:42:42.943Z,72.42
2019-02-21T00:43:18.613Z,72.75
2019-02-21T00:43:54.090Z,71.67
2019-02-21T00:44:29.531Z,72.45
2019-02-21T00:45:05.084Z,74.85
2019-02-21T00:45:40.819Z,76.55
2019-02-21T00:46:16.330Z,69.37
2019-02-21T00:46:52.007Z,65.40
2019-02-21T00:47:27.286Z,74.00
2019-02-21T00:48:02.911Z,67.70
2019-02-21T00:48:38.510Z,71.30
2019-02-21T00:49:14.206Z,70.50
2019-02-21T00:49:49.846Z,78.72
2019-02-21T00:50:25.290Z,75.08
2019-02-21T00:51:00.601Z,76.05
2019-02-21T00:51:36.137Z,74.32
2019-02-21T00:52:11.596Z,74.10
2019-02-21T00:52:47.057Z,72.58
2019-02-21T00:53:22.723Z,83.52
2019-02-21T00:53:58.128Z,71.02
2019-02-21T00:54:33.715Z,70.45
2019-02-21T00:55:09.366Z,66.95
2019-02-21T00:55:44.887Z,68.10
2019-02-21T00:56:20.168Z,70.97
2019-02-21T00:56:55.595Z,72.55
2019-02-21T00:57:31.157Z,75.80
2019-02-21T00:58:06.610Z,70.55
2019-02-21T00:58:42.087Z,76.62
2019-02-21T00:59:17.932Z,71.75
2019-02-21T00:59:53.656Z,67.27
2019-02-21T01:00:29.250Z,72.03
2019-02-21T01:01:04.779Z,73.92
2019-02-21T01:01:40.434Z,70.03
2019-02-21T01:02:15.788Z,72.55
2019-02-21T01:02:51.309Z,74.75
2019-02-21T01:03:26.808Z,73.52
2019-02-21T01:04:02.435Z,69.53
2019-02-21T01:04:37.961Z,75.03
2019-02-21T01:05:13.473Z,72.42
2019-02-21T01:05:48.975Z,71.65
2019-02-21T01:06:24.485Z,76.33
2019-02-21T01:06:59.888Z,72.30
2019-02-21T01:07:35.526Z,77.25
2019-02-21T01:08:10.985Z,70.90
2019-02-21T01:08:48.113Z,68.87
2019-02-21T01:09:23.688Z,68.57
2019-02-21T01:09:59.209Z,73.72
2019-02-21T01:10:34.912Z,73.12
2019-02-21T01:11:10.670Z,82.08
2019-02-21T01:11:46.049Z,74.12
2019-02-21T01:12:21.608Z,70.90
2019-02-21T01:12:57.407Z,74.72
2019-02-21T01:13:32.987Z,63.95
2019-02-21T01:14:08.933Z,65.78
2019-02-21T01:14:44.306Z,72.20
2019-02-21T01:15:19.917Z,68.17
2019-02-21T01:15:55.447Z,63.08
2019-02-21T01:16:30.942Z,69.62
2019-02-21T01:17:06.714Z,67.00
2019-02-21T01:17:42.307Z,64.92
2019-02-21T01:18:17.932Z,68.22
2019-02-21T01:18:53.546Z,67.47
2019-02-21T01:19:29.212Z,73.50
2019-02-21T01:20:05.010Z,73.97
2019-02-21T01:20:40.771Z,71.45
2019-02-21T01:21:16.555Z,69.92
2019-02-21T01:21:52.013Z,72.10
2019-02-21T01:22:27.435Z,68.60
2019-02-21T01:23:03.151Z,69.10
2019-02-21T01:23:38.792Z,67.42
2019-02-21T01:24:14.153Z,74.10
2019-02-21T01:24:49.943Z,71.07
2019-02-21T01:25:25.787Z,65.95
2019-02-21T01:26:01.489Z,70.45
2019-02-21T01:26:36.988Z,69.95
2019-02-21T01:27:12.798Z,66.28
2019-02-21T01:27:48.548Z,73.50
2019-02-21T01:28:24.387Z,70.28
2019-02-21T01:28:59.938Z,68.15
2019-02-21T01:29:35.606Z,68.25
2019-02-21T01:30:11.397Z,71.07
2019-02-21T01:30:56.710Z,71.47
2019-02-21T01:31:24.470Z,68.10
2019-02-21T01:32:00.071Z,71.70
2019-02-21T01:32:35.629Z,76.05
2019-02-21T01:33:11.248Z,72.17
2019-02-21T01:33:46.869Z,67.10
2019-02-21T01:34:22.870Z,67.17
2019-02-21T01:34:58.589Z,69.87
2019-02-21T01:35:34.148Z,70.12
2019-02-21T01:36:09.728Z,70.67
2019-02-21T01:36:45.133Z,68.78
2019-02-21T01:37:20.688Z,68.57
2019-02-21T01:37:56.155Z,67.20
2019-02-21T01:38:31.727Z,66.20
2019-02-21T01:39:08.708Z,80.00
2019-02-21T01:39:44.447Z,77.70
2019-02-21T01:40:20.048Z,79.25
2019-02-21T01:40:55.716Z,73.30
2019-02-21T01:41:31.266Z,71.62
2019-02-21T01:42:07.111Z,76.33
2019-02-21T01:42:43.091Z,68.25
2019-02-21T01:43:18.632Z,70.90
2019-02-21T01:43:54.809Z,69.40
2019-02-21T01:44:30.355Z,79.37
2019-02-21T01:45:06.246Z,73.52
2019-02-21T01:45:41.905Z,77.25
2019-02-21T01:46:17.509Z,75.22
2019-02-21T01:46:53.008Z,67.90
2019-02-21T01:47:28.647Z,74.25
2019-02-21T01:48:04.224Z,71.45
2019-02-21T01:48:39.775Z,71.72
2019-02-21T01:49:15.231Z,75.62
2019-02-21T01:49:50.749Z,76.97
2019-02-21T01:50:26.311Z,70.40
2019-02-21T01:51:01.951Z,71.85
2019-02-21T01:51:37.529Z,75.97
2019-02-21T01:52:13.189Z,67.65
2019-02-21T01:52:48.670Z,71.65
2019-02-21T01:53:24.208Z,74.82
2019-02-21T01:53:59.811Z,70.28
2019-02-21T01:54:35.335Z,72.37
2019-02-21T01:55:11.412Z,74.60
2019-02-21T01:55:47.151Z,67.37
2019-02-21T01:56:22.914Z,67.65
2019-02-21T01:56:58.558Z,62.83
2019-02-21T01:57:34.190Z,68.30
2019-02-21T01:58:09.650Z,71.87
2019-02-21T01:58:45.329Z,69.65
2019-02-21T01:59:20.948Z,63.95
2019-02-21T01:59:56.348Z,71.92
2019-02-21T02:00:32.105Z,72.97
2019-02-21T02:01:08.782Z,68.87
2019-02-21T02:01:44.807Z,70.70
2019-02-21T02:02:20.347Z,72.65
2019-02-21T02:02:55.788Z,75.55
2019-02-21T02:03:31.629Z,70.22
2019-02-21T02:04:07.306Z,66.80
2019-02-21T02:04:42.773Z,63.75
2019-02-21T02:05:18.326Z,78.85
2019-02-21T02:05:53.806Z,72.27
2019-02-21T02:06:29.387Z,63.78
2019-02-21T02:07:05.201Z,72.78
2019-02-21T02:07:40.974Z,64.75
2019-02-21T02:08:16.488Z,71.82
2019-02-21T02:08:51.988Z,67.37
2019-02-21T02:09:27.928Z,71.12
2019-02-21T02:10:03.670Z,60.58
2019-02-21T02:10:39.336Z,76.55
2019-02-21T02:11:14.928Z,71.05
2019-02-21T02:11:50.408Z,65.50
2019-02-21T02:12:25.908Z,67.90
2019-02-21T02:13:01.471Z,65.57
2019-02-21T02:13:37.149Z,70.87
2019-02-21T02:14:12.712Z,63.92
2019-02-21T02:14:48.319Z,71.55
2019-02-21T02:15:24.037Z,69.17
2019-02-21T02:15:59.615Z,68.28
2019-02-21T02:16:35.188Z,63.08
2019-02-21T02:17:10.674Z,63.70
2019-02-21T02:17:46.248Z,65.40
2019-02-21T02:18:21.568Z,65.57
2019-02-21T02:18:57.109Z,63.65
2019-02-21T02:19:32.728Z,68.45
2019-02-21T02:20:08.695Z,65.97
2019-02-21T02:20:44.207Z,68.65
2019-02-21T02:21:19.627Z,64.85
2019-02-21T02:21:55.049Z,66.07
2019-02-21T02:22:30.546Z,69.35
2019-02-21T02:23:06.046Z,65.35
2019-02-21T02:23:41.986Z,63.98
2019-02-21T02:24:17.609Z,57.93
2019-02-21T02:24:53.228Z,62.62
2019-02-21T02:25:28.749Z,66.90
2019-02-21T02:26:04.371Z,64.32
2019-02-21T02:26:39.848Z,63.13
2019-02-21T02:27:15.548Z,81.00
2019-02-21T02:27:51.095Z,75.75
2019-02-21T02:28:26.833Z,79.70
2019-02-21T02:29:02.387Z,79.92
2019-02-21T02:29:37.871Z,66.42
2019-02-21T02:30:14.293Z,73.20
2019-02-21T02:30:49.832Z,67.62
2019-02-21T02:31:25.217Z,62.65
2019-02-21T02:32:00.577Z,76.35
2019-02-21T02:32:35.873Z,72.87
2019-02-21T02:33:11.410Z,69.30
2019-02-21T02:33:46.950Z,63.50
2019-02-21T02:34:22.739Z,65.05
2019-02-21T02:34:59.967Z,59.80
2019-02-21T02:35:36.088Z,61.60
2019-02-21T02:36:11.750Z,59.35
2019-02-21T02:36:47.434Z,55.92
2019-02-21T02:37:23.046Z,66.72
2019-02-21T02:37:58.686Z,56.63
2019-02-21T02:38:34.306Z,59.27
2019-02-21T02:39:09.946Z,70.00
2019-02-21T02:39:45.509Z,64.53
2019-02-21T02:40:21.220Z,66.40
2019-02-21T02:40:56.931Z,63.28
2019-02-21T02:41:32.360Z,60.03
2019-02-21T02:42:08.037Z,60.90
2019-02-21T02:42:43.752Z,59.42
2019-02-21T02:43:19.261Z,62.45
2019-02-21T02:43:54.691Z,62.05
2019-02-21T02:44:30.485Z,63.23
2019-02-21T02:45:06.591Z,59.35
2019-02-21T02:45:42.236Z,61.77
2019-02-21T02:46:17.882Z,61.88
2019-02-21T02:46:53.247Z,55.52
2019-02-21T02:47:28.870Z,54.15
2019-02-21T02:48:04.320Z,57.67
2019-02-21T02:48:39.828Z,59.83
2019-02-21T02:49:15.328Z,58.17
2019-02-21T02:49:50.748Z,67.45
2019-02-21T02:50:26.269Z,59.48
2019-02-21T02:51:02.227Z,63.15
2019-02-21T02:51:37.808Z,56.63
2019-02-21T02:52:13.574Z,60.38
2019-02-21T02:52:48.993Z,58.38
2019-02-21T02:53:24.474Z,59.90
2019-02-21T02:53:59.992Z,58.60
2019-02-21T02:54:35.333Z,60.12
2019-02-21T02:55:10.726Z,61.37
2019-02-21T02:55:46.171Z,50.67
2019-02-21T02:56:21.613Z,58.92
2019-02-21T02:56:57.048Z,54.08
2019-02-21T02:57:32.429Z,61.53
2019-02-21T02:58:07.996Z,55.52
2019-02-21T02:58:45.428Z,53.00
2019-02-21T02:59:20.387Z,54.75
2019-02-21T02:59:55.808Z,54.03
2019-02-21T03:00:31.255Z,54.42
2019-02-21T03:01:06.690Z,59.38
2019-02-21T03:01:42.533Z,55.03
2019-02-21T03:02:17.814Z,58.15
2019-02-21T03:02:53.250Z,57.08
2019-02-21T03:03:28.778Z,57.25
2019-02-21T03:04:04.042Z,63.83
2019-02-21T03:04:39.689Z,53.98
2019-02-21T03:05:15.377Z,58.28
2019-02-21T03:05:50.868Z,65.95
2019-02-21T03:06:26.287Z,58.75
2019-02-21T03:07:01.696Z,65.22
2019-02-21T03:07:37.128Z,58.83
2019-02-21T03:08:12.626Z,61.65
2019-02-21T03:08:48.423Z,63.85
2019-02-21T03:09:23.909Z,61.00
2019-02-21T03:09:59.403Z,65.28
2019-02-21T03:10:34.943Z,74.22
2019-02-21T03:11:10.667Z,57.17
2019-02-21T03:11:46.094Z,57.95
2019-02-21T03:12:21.490Z,57.85
2019-02-21T03:12:57.076Z,59.15
2019-02-21T03:13:32.531Z,58.48
2019-02-21T03:14:07.831Z,65.85
2019-02-21T03:14:43.171Z,64.15
2019-02-21T03:15:18.529Z,62.73
2019-02-21T03:15:54.206Z,64.15
2019-02-21T03:16:29.727Z,84.83
2019-02-21T03:17:05.149Z,102.70
2019-02-21T03:17:40.569Z,106.17
2019-02-21T03:18:16.010Z,100.65
2019-02-21T03:18:51.509Z,80.83
2019-02-21T03:19:26.870Z,83.62
2019-02-21T03:20:02.397Z,76.50
2019-02-21T03:20:38.048Z,71.95
2019-02-21T03:21:13.587Z,61.95
2019-02-21T03:21:48.986Z,65.67
2019-02-21T03:22:24.325Z,62.93
2019-02-21T03:22:59.971Z,59.50
2019-02-21T03:23:35.290Z,71.05
2019-02-21T03:24:10.689Z,85.32
2019-02-21T03:24:46.548Z,69.53
2019-02-21T03:25:22.006Z,77.55
2019-02-21T03:25:57.645Z,89.17
2019-02-21T03:26:33.346Z,85.62
2019-02-21T03:27:08.865Z,75.47
2019-02-21T03:27:44.321Z,78.40
2019-02-21T03:28:19.613Z,91.02
2019-02-21T03:28:55.074Z,90.80
2019-02-21T03:29:30.652Z,108.87
2019-02-21T03:30:06.468Z,96.90
2019-02-21T03:30:41.895Z,83.75
2019-02-21T03:31:17.311Z,63.25
2019-02-21T03:31:55.581Z,65.90
2019-02-21T03:32:30.035Z,57.25
2019-02-21T03:33:05.446Z,60.83
2019-02-21T03:33:41.190Z,73.15
2019-02-21T03:34:16.776Z,54.13
2019-02-21T03:34:52.272Z,66.95
2019-02-21T03:35:27.696Z,65.67
2019-02-21T03:36:03.370Z,58.08
2019-02-21T03:36:38.814Z,65.83
2019-02-21T03:37:14.408Z,65.90
2019-02-21T03:37:49.954Z,73.55
2019-02-21T03:38:25.449Z,64.60
2019-02-21T03:39:00.889Z,70.70
2019-02-21T03:39:36.307Z,64.03
2019-02-21T03:40:11.775Z,59.58
2019-02-21T03:40:47.429Z,61.37
2019-02-21T03:41:23.110Z,61.10
2019-02-21T03:41:58.745Z,64.27
2019-02-21T03:42:34.045Z,63.65
2019-02-21T03:43:09.409Z,68.22
2019-02-21T03:43:44.749Z,56.83
2019-02-21T03:44:20.030Z,71.05
2019-02-21T03:44:55.392Z,62.80
2019-02-21T03:45:31.207Z,61.28
2019-02-21T03:46:06.566Z,61.23
2019-02-21T03:46:42.098Z,69.92
2019-02-21T03:47:17.585Z,64.05
2019-02-21T03:47:53.048Z,67.25
2019-02-21T03:48:28.396Z,60.88
2019-02-21T03:49:03.907Z,60.95
2019-02-21T03:49:39.330Z,66.28
2019-02-21T03:50:15.293Z,63.78
2019-02-21T03:50:51.054Z,60.92
2019-02-21T03:51:26.388Z,58.45
2019-02-21T03:52:01.748Z,64.65
2019-02-21T03:52:37.049Z,62.58
2019-02-21T03:53:12.452Z,72.62
2019-02-21T03:53:47.886Z,75.40
2019-02-21T03:54:23.904Z,66.05
2019-02-21T03:54:59.244Z,69.05
2019-02-21T03:55:35.773Z,68.97
2019-02-21T03:56:11.544Z,61.28
2019-02-21T03:56:47.074Z,65.03
2019-02-21T03:57:22.491Z,59.75
2019-02-21T03:57:57.790Z,58.05
2019-02-21T03:58:33.150Z,59.65
2019-02-21T03:59:08.591Z,70.42
2019-02-21T03:59:43.986Z,73.40
2019-02-21T04:00:19.353Z,79.60
2019-02-21T04:00:55.307Z,61.83
2019-02-21T04:01:30.766Z,62.27
2019-02-21T04:02:06.271Z,66.07
2019-02-21T04:02:41.648Z,62.67
2019-02-21T04:03:17.489Z,58.58
2019-02-21T04:03:53.051Z,62.43
2019-02-21T04:04:28.496Z,59.45
2019-02-21T04:05:04.088Z,62.73
2019-02-21T04:05:39.529Z,60.20
2019-02-21T04:06:14.869Z,58.20
2019-02-21T04:06:50.169Z,53.38
2019-02-21T04:07:25.563Z,61.95
2019-02-21T04:08:00.876Z,56.58
2019-02-21T04:08:36.269Z,58.45
2019-02-21T04:09:11.618Z,53.95
2019-02-21T04:09:47.352Z,56.95
2019-02-21T04:10:23.090Z,58.92
2019-02-21T04:10:58.430Z,46.15
2019-02-21T04:11:33.938Z,51.63
2019-02-21T04:12:09.623Z,57.85
2019-02-21T04:12:45.155Z,76.70
2019-02-21T04:13:20.613Z,69.05
2019-02-21T04:13:56.080Z,67.35
2019-02-21T04:14:31.587Z,68.67
2019-02-21T04:15:07.547Z,69.53
2019-02-21T04:15:42.888Z,64.67
2019-02-21T04:16:18.270Z,52.58
2019-02-21T04:16:53.849Z,55.65
2019-02-21T04:17:29.170Z,55.40
2019-02-21T04:18:04.507Z,58.08
2019-02-21T04:18:39.956Z,57.58
2019-02-21T04:19:15.459Z,56.88
2019-02-21T04:19:50.771Z,59.63
2019-02-21T04:20:26.228Z,78.90
2019-02-21T04:21:01.512Z,70.95
2019-02-21T04:21:36.769Z,66.60
2019-02-21T04:22:12.241Z,71.02
2019-02-21T04:22:47.813Z,61.68
2019-02-21T04:23:23.070Z,71.53
2019-02-21T04:23:58.392Z,65.50
2019-02-21T04:24:33.831Z,57.88
2019-02-21T04:25:09.467Z,61.68
2019-02-21T04:25:44.808Z,57.78
2019-02-21T04:26:20.197Z,51.18
2019-02-21T04:26:55.751Z,58.87
2019-02-21T04:27:31.331Z,65.40
2019-02-21T04:28:06.748Z,64.07
2019-02-21T04:28:42.027Z,55.33
2019-02-21T04:29:17.497Z,60.20
2019-02-21T04:29:53.047Z,55.95
2019-02-21T04:30:28.427Z,54.42
2019-02-21T04:31:03.892Z,68.78
2019-02-21T04:31:39.346Z,55.23
2019-02-21T04:32:16.998Z,60.67
2019-02-21T04:32:51.815Z,67.90
2019-02-21T04:33:27.235Z,59.83
2019-02-21T04:34:02.655Z,63.98
2019-02-21T04:34:38.095Z,72.32
2019-02-21T04:35:13.532Z,73.12
2019-02-21T04:35:48.957Z,59.20
2019-02-21T04:36:24.297Z,66.17
2019-02-21T04:36:59.810Z,68.05
2019-02-21T04:37:35.402Z,66.92
2019-02-21T04:38:10.779Z,69.87
2019-02-21T04:38:46.191Z,70.32
2019-02-21T04:39:21.574Z,75.75
2019-02-21T04:39:56.951Z,57.15
2019-02-21T04:40:32.517Z,62.78
2019-02-21T04:41:07.907Z,63.45
2019-02-21T04:41:43.487Z,65.10
2019-02-21T04:42:19.009Z,80.22
2019-02-21T04:42:54.347Z,54.73
2019-02-21T04:43:29.768Z,61.98
2019-02-21T04:44:05.388Z,65.25
2019-02-21T04:44:40.749Z,51.50
2019-02-21T04:45:16.193Z,54.80
2019-02-21T04:45:51.804Z,59.23
2019-02-21T04:46:27.349Z,69.70
2019-02-21T04:47:02.852Z,80.75
2019-02-21T04:47:38.320Z,69.55
2019-02-21T04:48:13.730Z,76.17
2019-02-21T04:48:49.076Z,75.37
2019-02-21T04:49:24.487Z,80.80
2019-02-21T04:49:59.835Z,73.57
2019-02-21T04:50:35.161Z,73.47
2019-02-21T04:51:10.696Z,62.90
2019-02-21T04:51:46.007Z,84.75
2019-02-21T04:52:21.367Z,58.13
2019-02-21T04:52:56.747Z,65.70
2019-02-21T04:53:32.285Z,63.60
2019-02-21T04:54:07.734Z,56.68
2019-02-21T04:54:43.253Z,59.53
2019-02-21T04:55:18.688Z,56.25
2019-02-21T04:55:54.257Z,52.40
2019-02-21T04:56:29.773Z,53.87
2019-02-21T04:57:05.339Z,47.08
2019-02-21T04:57:40.892Z,51.90
2019-02-21T04:58:16.425Z,49.45
2019-02-21T04:58:51.789Z,60.50
2019-02-21T04:59:27.085Z,50.98
2019-02-21T05:00:02.606Z,51.80
2019-02-21T05:00:37.974Z,51.55
2019-02-21T05:01:13.415Z,54.65
2019-02-21T05:01:48.854Z,57.85
2019-02-21T05:02:28.921Z,50.25
2019-02-21T05:03:01.276Z,59.63
2019-02-21T05:03:36.667Z,56.77
2019-02-21T05:04:11.988Z,63.42
2019-02-21T05:04:47.408Z,50.40
2019-02-21T05:05:22.830Z,46.30
2019-02-21T05:05:58.350Z,54.15
2019-02-21T05:06:33.718Z,49.80
2019-02-21T05:07:09.229Z,47.78
2019-02-21T05:07:44.527Z,46.05
2019-02-21T05:08:20.128Z,52.38
2019-02-21T05:08:55.530Z,49.95
2019-02-21T05:09:31.070Z,47.13
2019-02-21T05:10:06.544Z,55.23
2019-02-21T05:10:42.208Z,52.05
2019-02-21T05:11:17.806Z,55.70
2019-02-21T05:11:53.525Z,61.35
2019-02-21T05:12:28.847Z,52.03
2019-02-21T05:13:04.321Z,51.08
2019-02-21T05:13:39.847Z,44.90
2019-02-21T05:14:15.350Z,52.23
2019-02-21T05:14:50.862Z,51.98
2019-02-21T05:15:26.295Z,63.55
2019-02-21T05:16:01.627Z,56.05
2019-02-21T05:16:36.950Z,58.40
2019-02-21T05:17:12.290Z,60.52
2019-02-21T05:17:47.814Z,58.13
2019-02-21T05:18:23.255Z,51.80
2019-02-21T05:18:58.653Z,53.20
2019-02-21T05:19:34.386Z,50.95
2019-02-21T05:20:09.847Z,47.75
2019-02-21T05:20:45.249Z,51.08
2019-02-21T05:21:20.693Z,53.60
2019-02-21T05:21:56.025Z,53.68
2019-02-21T05:22:31.526Z,51.40
2019-02-21T05:23:06.925Z,54.77
2019-02-21T05:23:42.285Z,50.48
2019-02-21T05:24:17.665Z,47.17
2019-02-21T05:24:52.971Z,58.65
2019-02-21T05:25:28.498Z,49.48
2019-02-21T05:26:04.060Z,50.35
2019-02-21T05:26:43.267Z,52.85
2019-02-21T05:27:22.307Z,44.58
2019-02-21T05:28:16.636Z,47.45
2019-02-21T05:28:52.509Z,50.92
2019-02-21T05:29:28.046Z,47.17
2019-02-21T05:30:03.965Z,55.23
2019-02-21T05:30:39.328Z,49.05
2019-02-21T05:31:36.628Z,47.93
2019-02-21T05:32:40.661Z,49.80
2019-02-21T05:33:32.850Z,56.25
2019-02-21T05:34:25.894Z,60.88
2019-02-21T05:35:10.746Z,51.18
2019-02-21T05:36:14.731Z,61.55
2019-02-21T05:37:10.953Z,65.87
2019-02-21T05:38:00.932Z,56.75
2019-02-21T05:39:04.829Z,53.58
2019-02-21T05:40:02.727Z,58.20
2019-02-21T05:40:52.865Z,58.17
2019-02-21T05:41:46.005Z,55.28
2019-02-21T05:42:29.955Z,65.10
2019-02-21T05:43:23.193Z,61.08
2019-02-21T05:44:07.834Z,64.25
2019-02-21T05:44:51.135Z,57.40
2019-02-21T05:45:54.637Z,62.08
2019-02-21T05:46:55.063Z,61.35
2019-02-21T05:47:42.055Z,57.53
2019-02-21T05:48:31.503Z,61.85
2019-02-21T05:49:25.886Z,62.03
2019-02-21T05:50:32.553Z,58.58
2019-02-21T05:51:29.989Z,54.13
2019-02-21T05:52:12.886Z,55.52
2019-02-21T05:52:54.989Z,51.60
2019-02-21T05:53:45.469Z,61.15
2019-02-21T05:54:39.734Z,58.17
2019-02-21T05:55:29.911Z,59.03
2019-02-21T05:56:27.581Z,58.73
2019-02-21T05:57:21.830Z,85.50
2019-02-21T05:58:08.530Z,82.60
2019-02-21T05:59:08.846Z,62.17
2019-02-21T06:00:06.290Z,71.62
2019-02-21T06:01:09.686Z,59.10
2019-02-21T06:02:02.426Z,48.38
2019-02-21T06:02:56.786Z,63.85
2019-02-21T06:03:54.033Z,67.40
2019-02-21T06:04:51.948Z,62.17
2019-02-21T06:05:54.770Z,67.60
2019-02-21T06:07:09.873Z,64.30
2019-02-21T06:07:54.375Z,67.72
2019-02-21T06:08:39.949Z,64.55
2019-02-21T06:09:53.054Z,74.72
2019-02-21T06:10:56.034Z,65.03
2019-02-21T06:11:50.612Z,61.70
2019-02-21T06:12:36.580Z,57.80
2019-02-21T06:13:33.837Z,59.55
2019-02-21T06:14:34.130Z,62.25
2019-02-21T06:15:21.363Z,60.10
2019-02-21T06:16:12.689Z,59.35
2019-02-21T06:17:12.649Z,62.83
2019-02-21T06:18:09.588Z,69.97
2019-02-21T06:19:02.632Z,93.60
2019-02-21T06:19:52.389Z,73.57
2019-02-21T06:20:47.085Z,66.80
2019-02-21T06:21:32.345Z,86.70
2019-02-21T06:22:26.966Z,74.87
2019-02-21T06:23:12.085Z,64.62
2019-02-21T06:24:09.425Z,60.98
2019-02-21T06:25:12.814Z,56.40
2019-02-21T06:26:13.113Z,58.78
2019-02-21T06:26:54.000Z,56.77
2019-02-21T06:27:58.555Z,52.30
2019-02-21T06:28:56.245Z,54.75
2019-02-21T06:29:41.113Z,64.27
2019-02-21T06:30:20.725Z,63.23
2019-02-21T06:31:09.099Z,51.10
2019-02-21T06:31:44.748Z,43.63
2019-02-21T06:32:20.173Z,58.15
2019-02-21T06:33:04.618Z,50.08
2019-02-21T06:33:32.733Z,52.80
2019-02-21T06:34:08.352Z,70.67
2019-02-21T06:34:43.890Z,57.83
2019-02-21T06:35:19.229Z,63.35
2019-02-21T06:35:54.573Z,74.22
2019-02-21T06:36:30.125Z,56.20
2019-02-21T06:37:06.059Z,63.50
2019-02-21T06:37:41.673Z,60.10
2019-02-21T06:38:17.199Z,66.90
2019-02-21T06:38:52.591Z,53.23
2019-02-21T06:39:27.949Z,55.58
2019-02-21T06:40:03.531Z,57.88
2019-02-21T06:40:38.957Z,53.70
2019-02-21T06:41:14.465Z,48.55
2019-02-21T06:41:59.144Z,49.08
2019-02-21T06:42:26.888Z,48.17
2019-02-21T06:43:02.291Z,64.10
2019-02-21T06:43:37.745Z,51.48
2019-02-21T06:44:13.065Z,46.08
2019-02-21T06:44:48.514Z,52.98
2019-02-21T06:45:23.968Z,50.80
2019-02-21T06:45:59.646Z,51.42
2019-02-21T06:46:35.085Z,63.83
2019-02-21T06:47:10.509Z,61.68
2019-02-21T06:47:45.934Z,55.70
2019-02-21T06:48:21.373Z,65.85
2019-02-21T06:48:56.930Z,58.00
2019-02-21T06:49:33.061Z,54.90
2019-02-21T06:50:09.010Z,61.95
2019-02-21T06:50:44.430Z,49.30
2019-02-21T06:51:19.873Z,54.60
2019-02-21T06:51:55.245Z,55.00
2019-02-21T06:52:30.546Z,56.00
2019-02-21T06:53:06.293Z,54.50
2019-02-21T06:53:41.543Z,55.73
2019-02-21T06:54:17.090Z,57.00
2019-02-21T06:54:52.550Z,50.28
2019-02-21T06:55:27.883Z,52.93
2019-02-21T06:56:03.490Z,62.23
2019-02-21T06:56:39.102Z,51.48
2019-02-21T06:57:14.561Z,54.03
2019-02-21T06:57:50.097Z,61.75
2019-02-21T06:58:25.439Z,65.65
2019-02-21T06:59:00.972Z,56.53
2019-02-21T06:59:42.439Z,56.85
2019-02-21T07:00:13.940Z,56.73
2019-02-21T07:00:49.394Z,49.65
2019-02-21T07:01:29.027Z,57.53
2019-02-21T07:02:02.514Z,50.23
2019-02-21T07:02:37.984Z,55.20
2019-02-21T07:03:16.145Z,57.00
2019-02-21T07:03:50.529Z,51.83
2019-02-21T07:04:25.916Z,55.00
2019-02-21T07:05:01.411Z,55.98
2019-02-21T07:05:37.092Z,55.73
2019-02-21T07:06:12.893Z,59.95
2019-02-21T07:06:48.382Z,65.65
2019-02-21T07:07:23.646Z,67.75
2019-02-21T07:07:59.257Z,65.85
2019-02-21T07:08:34.575Z,57.65
2019-02-21T07:09:09.851Z,65.20
2019-02-21T07:09:45.386Z,58.38
2019-02-21T07:10:20.905Z,55.85
2019-02-21T07:11:05.887Z,56.85
2019-02-21T07:11:33.405Z,62.23
2019-02-21T07:12:10.594Z,62.83
2019-02-21T07:12:46.136Z,68.78
2019-02-21T07:13:26.705Z,64.53
2019-02-21T07:13:59.400Z,57.33
2019-02-21T07:14:34.810Z,60.12
2019-02-21T07:15:11.052Z,55.67
2019-02-21T07:15:46.646Z,91.63
2019-02-21T07:16:22.069Z,93.27
2019-02-21T07:16:57.488Z,72.45
2019-02-21T07:17:32.906Z,72.65
2019-02-21T07:18:11.014Z,64.62
2019-02-21T07:18:45.296Z,64.45
2019-02-21T07:19:20.627Z,64.87
2019-02-21T07:19:56.170Z,57.33
2019-02-21T07:20:31.932Z,94.85
2019-02-21T07:21:07.209Z,60.67
2019-02-21T07:21:42.545Z,51.98
2019-02-21T07:22:22.196Z,53.98
2019-02-21T07:22:55.570Z,48.87
2019-02-21T07:23:42.617Z,55.33
2019-02-21T07:24:08.076Z,56.55
2019-02-21T07:24:44.295Z,55.65
2019-02-21T07:25:32.427Z,47.25
2019-02-21T07:26:10.649Z,61.77
2019-02-21T07:26:46.107Z,54.63
2019-02-21T07:27:21.429Z,56.68
2019-02-21T07:27:58.362Z,69.67
2019-02-21T07:28:34.137Z,77.35
2019-02-21T07:29:09.653Z,64.50
2019-02-21T07:29:45.011Z,71.80
2019-02-21T07:30:23.032Z,45.55
2019-02-21T07:30:57.754Z,54.38
2019-02-21T07:31:33.298Z,60.05
2019-02-21T07:32:08.774Z,46.15
2019-02-21T07:32:44.310Z,45.80
2019-02-21T07:33:28.450Z,44.33
2019-02-21T07:33:56.849Z,51.98
2019-02-21T07:34:32.217Z,46.10
2019-02-21T07:35:07.755Z,55.43
2019-02-21T07:35:43.201Z,51.30
2019-02-21T07:36:18.733Z,50.58
2019-02-21T07:36:54.216Z,43.10
2019-02-21T07:37:29.679Z,50.80
2019-02-21T07:38:05.198Z,50.25
2019-02-21T07:38:40.567Z,49.65
2019-02-21T07:39:18.543Z,55.90
2019-02-21T07:39:53.030Z,50.10
2019-02-21T07:40:28.369Z,57.40
2019-02-21T07:41:04.117Z,44.50
2019-02-21T07:41:41.669Z,44.20
2019-02-21T07:42:16.938Z,48.25
2019-02-21T07:42:52.257Z,45.33
2019-02-21T07:43:27.836Z,41.70
2019-02-21T07:44:11.688Z,44.85
2019-02-21T07:44:40.369Z,47.78
2019-02-21T07:45:16.330Z,42.00
2019-02-21T07:45:51.789Z,41.00
2019-02-21T07:46:27.407Z,46.88
2019-02-21T07:47:02.710Z,39.00
2019-02-21T07:47:38.398Z,43.23
2019-02-21T07:48:13.950Z,50.52
2019-02-21T07:48:49.455Z,45.78
2019-02-21T07:49:25.750Z,44.10
2019-02-21T07:50:01.292Z,48.92
2019-02-21T07:50:36.747Z,47.88
2019-02-21T07:51:13.474Z,43.15
2019-02-21T07:51:49.229Z,40.80
2019-02-21T07:52:26.162Z,39.90
2019-02-21T07:53:02.657Z,42.55
2019-02-21T07:53:38.390Z,48.08
2019-02-21T07:54:13.750Z,52.20
2019-02-21T07:54:54.144Z,44.80
2019-02-21T07:55:26.600Z,53.60
2019-02-21T07:56:02.196Z,64.03
2019-02-21T07:56:41.901Z,49.77
2019-02-21T07:57:14.824Z,42.35
2019-02-21T07:57:50.315Z,42.10
2019-02-21T07:58:25.783Z,40.95
2019-02-21T07:59:01.161Z,43.83
2019-02-21T07:59:36.596Z,36.38
2019-02-21T08:00:12.737Z,45.40